Nogales International Airport Nogales US
ICAO: KOLS
IATA: OLS
Category: Medium
Scheduled Services: No

Elevation: 3955 ft
TransAlt. 18000 ft.

Airport Communications:
TUCSON APP DEP:125.1
ASOS:121.125
PRESCOTT RDO:122.4
CTAF/UNICOM:122.8

KOLS Zoom In..

Runways:

(A) RW 03 length 7200 ft width 100 ft
---- / hdg 34

(B) RW 21 length 7200 ft width 100 ft
---- / hdg 214

Location; KOLS
Day. 04 / Time. 13.54 Zulu
* Altimeter: 29.93
* Temperature: 06° c. 42.8°f.
* Wind from: 040° Speed 03 kn.
Dewpoint: -03° c.
Visibility: 10 Statute Miles.
Clouds: Clear (automated report).

KOLS 041354Z AUTO 04003KT 10SM CLR 06/M03 A2993 RMK AO2 SLP097 T00611033


Wind From 040°
Speed 03 kn.

 
 
jpsmedia worldairports.se 2020   terms of use